sensor_id;sensor_type;location;lat;lon;timestamp;pressure;altitude;pressure_sealevel;temperature;humidity
70589;BME280;58152;49.202;18.744;2022-08-19T00:01:24;96886.66;;;25.21;49.87
70589;BME280;58152;49.202;18.744;2022-08-19T00:03:50;96888.03;;;25.17;50.19
70589;BME280;58152;49.202;18.744;2022-08-19T00:06:15;96890.88;;;25.16;50.17
70589;BME280;58152;49.202;18.744;2022-08-19T00:08:44;96880.66;;;25.11;50.17
70589;BME280;58152;49.202;18.744;2022-08-19T00:11:10;96878.13;;;25.09;50.15
70589;BME280;58152;49.202;18.744;2022-08-19T00:13:35;96870.56;;;25.05;50.24
70589;BME280;58152;49.202;18.744;2022-08-19T00:16:01;96866.72;;;24.99;50.45
70589;BME280;58152;49.202;18.744;2022-08-19T00:18:27;96871.25;;;24.99;50.53
70589;BME280;58152;49.202;18.744;2022-08-19T00:20:53;96860.03;;;24.95;50.50
70589;BME280;58152;49.202;18.744;2022-08-19T00:23:18;96857.69;;;24.92;50.83
70589;BME280;58152;49.202;18.744;2022-08-19T00:25:44;96857.19;;;24.89;50.69
70589;BME280;58152;49.202;18.744;2022-08-19T00:28:10;96852.16;;;24.85;50.72
70589;BME280;58152;49.202;18.744;2022-08-19T00:30:36;96856.38;;;24.88;50.96
70589;BME280;58152;49.202;18.744;2022-08-19T00:33:02;96855.19;;;24.82;50.88
70589;BME280;58152;49.202;18.744;2022-08-19T00:35:27;96854.84;;;24.77;51.42
70589;BME280;58152;49.202;18.744;2022-08-19T00:37:54;96866.59;;;24.76;51.26
70589;BME280;58152;49.202;18.744;2022-08-19T00:40:20;96855.22;;;24.74;51.02
70589;BME280;58152;49.202;18.744;2022-08-19T00:42:46;96857.22;;;24.72;51.43
70589;BME280;58152;49.202;18.744;2022-08-19T00:45:17;96864.44;;;24.72;51.63
70589;BME280;58152;49.202;18.744;2022-08-19T00:47:43;96858.41;;;24.70;51.51
70589;BME280;58152;49.202;18.744;2022-08-19T00:50:10;96855.03;;;24.68;51.51
70589;BME280;58152;49.202;18.744;2022-08-19T00:52:40;96859.75;;;24.66;51.60
70589;BME280;58152;49.202;18.744;2022-08-19T00:55:13;96860.91;;;24.63;51.83
70589;BME280;58152;49.202;18.744;2022-08-19T00:57:42;96863.09;;;24.59;51.92
70589;BME280;58152;49.202;18.744;2022-08-19T01:00:12;96848.53;;;24.54;52.10
70589;BME280;58152;49.202;18.744;2022-08-19T01:02:40;96862.25;;;24.51;51.76
70589;BME280;58152;49.202;18.744;2022-08-19T01:05:10;96857.75;;;24.43;52.23
70589;BME280;58152;49.202;18.744;2022-08-19T01:07:38;96851.88;;;24.40;52.44
70589;BME280;58152;49.202;18.744;2022-08-19T01:10:11;96855.72;;;24.29;52.36
70589;BME280;58152;49.202;18.744;2022-08-19T01:12:38;96858.91;;;24.24;52.57
70589;BME280;58152;49.202;18.744;2022-08-19T01:15:05;96858.38;;;24.21;52.76
70589;BME280;58152;49.202;18.744;2022-08-19T01:17:33;96854.19;;;24.18;52.81
70589;BME280;58152;49.202;18.744;2022-08-19T01:19:59;96854.53;;;24.15;52.71
70589;BME280;58152;49.202;18.744;2022-08-19T01:22:28;96851.03;;;24.15;52.95
70589;BME280;58152;49.202;18.744;2022-08-19T01:24:55;96864.75;;;24.12;52.97
70589;BME280;58152;49.202;18.744;2022-08-19T01:27:21;96856.19;;;24.08;53.00
70589;BME280;58152;49.202;18.744;2022-08-19T01:29:47;96859.03;;;24.06;53.14
70589;BME280;58152;49.202;18.744;2022-08-19T01:32:15;96862.03;;;24.03;53.32
70589;BME280;58152;49.202;18.744;2022-08-19T01:34:41;96861.53;;;24.00;53.33
70589;BME280;58152;49.202;18.744;2022-08-19T01:37:12;96863.56;;;23.98;53.23
70589;BME280;58152;49.202;18.744;2022-08-19T01:39:40;96856.34;;;23.98;53.46
70589;BME280;58152;49.202;18.744;2022-08-19T01:42:07;96862.84;;;23.96;53.40
70589;BME280;58152;49.202;18.744;2022-08-19T01:44:36;96859.69;;;23.92;53.63
70589;BME280;58152;49.202;18.744;2022-08-19T01:47:03;96854.00;;;23.87;53.54
70589;BME280;58152;49.202;18.744;2022-08-19T01:49:29;96854.31;;;23.84;53.56
70589;BME280;58152;49.202;18.744;2022-08-19T01:51:55;96860.00;;;23.81;53.88
70589;BME280;58152;49.202;18.744;2022-08-19T01:54:22;96863.69;;;23.80;53.70
70589;BME280;58152;49.202;18.744;2022-08-19T01:56:51;96856.13;;;23.75;54.04
70589;BME280;58152;49.202;18.744;2022-08-19T01:59:20;96864.34;;;23.74;54.29
70589;BME280;58152;49.202;18.744;2022-08-19T02:01:47;96858.47;;;23.70;54.37
70589;BME280;58152;49.202;18.744;2022-08-19T02:04:12;96864.00;;;23.69;54.42
70589;BME280;58152;49.202;18.744;2022-08-19T02:06:38;96852.59;;;23.67;54.49
70589;BME280;58152;49.202;18.744;2022-08-19T02:09:07;96850.94;;;23.66;54.49
70589;BME280;58152;49.202;18.744;2022-08-19T02:11:34;96832.19;;;23.66;54.67
70589;BME280;58152;49.202;18.744;2022-08-19T02:14:03;96848.25;;;23.66;54.62
70589;BME280;58152;49.202;18.744;2022-08-19T02:16:31;96858.41;;;23.62;54.85
70589;BME280;58152;49.202;18.744;2022-08-19T02:18:57;96859.41;;;23.61;54.84
70589;BME280;58152;49.202;18.744;2022-08-19T02:21:25;96852.38;;;23.60;54.84
70589;BME280;58152;49.202;18.744;2022-08-19T02:23:52;96852.38;;;23.60;54.51
70589;BME280;58152;49.202;18.744;2022-08-19T02:26:17;96853.53;;;23.57;54.60
70589;BME280;58152;49.202;18.744;2022-08-19T02:28:43;96838.13;;;23.51;54.87
70589;BME280;58152;49.202;18.744;2022-08-19T02:31:14;96841.13;;;23.48;54.56
70589;BME280;58152;49.202;18.744;2022-08-19T02:33:40;96843.16;;;23.46;54.72
70589;BME280;58152;49.202;18.744;2022-08-19T02:36:07;96842.75;;;23.41;55.13
70589;BME280;58152;49.202;18.744;2022-08-19T02:38:33;96843.78;;;23.40;55.16
70589;BME280;58152;49.202;18.744;2022-08-19T02:41:01;96835.91;;;23.39;55.37
70589;BME280;58152;49.202;18.744;2022-08-19T02:43:29;96828.38;;;23.34;55.47
70589;BME280;58152;49.202;18.744;2022-08-19T02:45:55;96821.50;;;23.31;55.15
70589;BME280;58152;49.202;18.744;2022-08-19T02:48:22;96813.63;;;23.30;55.12
70589;BME280;58152;49.202;18.744;2022-08-19T02:50:50;96824.50;;;23.28;55.44
70589;BME280;58152;49.202;18.744;2022-08-19T02:53:18;96830.34;;;23.24;55.72
70589;BME280;58152;49.202;18.744;2022-08-19T02:55:45;96839.50;;;23.21;55.22
70589;BME280;58152;49.202;18.744;2022-08-19T02:58:12;96835.47;;;23.17;55.75
70589;BME280;58152;49.202;18.744;2022-08-19T03:00:43;96835.66;;;23.16;55.80
70589;BME280;58152;49.202;18.744;2022-08-19T03:03:09;96834.81;;;23.15;55.54
70589;BME280;58152;49.202;18.744;2022-08-19T03:05:34;96846.66;;;23.13;55.87
70589;BME280;58152;49.202;18.744;2022-08-19T03:07:59;96853.19;;;23.10;55.79
70589;BME280;58152;49.202;18.744;2022-08-19T03:10:25;96847.16;;;23.08;55.89
70589;BME280;58152;49.202;18.744;2022-08-19T03:12:50;96835.25;;;23.02;56.31
70589;BME280;58152;49.202;18.744;2022-08-19T03:15:16;96836.56;;;22.98;56.15
70589;BME280;58152;49.202;18.744;2022-08-19T03:17:41;96849.28;;;22.96;56.39
70589;BME280;58152;49.202;18.744;2022-08-19T03:20:07;96845.38;;;22.91;56.28
70589;BME280;58152;49.202;18.744;2022-08-19T03:22:32;96860.34;;;22.83;56.29
70589;BME280;58152;49.202;18.744;2022-08-19T03:24:59;96871.34;;;22.80;56.48
70589;BME280;58152;49.202;18.744;2022-08-19T03:27:24;96867.00;;;22.79;56.63
70589;BME280;58152;49.202;18.744;2022-08-19T03:29:50;96877.53;;;22.81;56.75
70589;BME280;58152;49.202;18.744;2022-08-19T03:32:16;96876.88;;;22.79;56.83
70589;BME280;58152;49.202;18.744;2022-08-19T03:34:41;96879.38;;;22.80;56.88
70589;BME280;58152;49.202;18.744;2022-08-19T03:37:09;96867.19;;;22.78;56.82
70589;BME280;58152;49.202;18.744;2022-08-19T03:39:38;96871.84;;;22.76;56.75
70589;BME280;58152;49.202;18.744;2022-08-19T03:42:04;96876.66;;;22.72;57.03
70589;BME280;58152;49.202;18.744;2022-08-19T03:44:30;96872.63;;;22.68;56.78
70589;BME280;58152;49.202;18.744;2022-08-19T03:46:59;96869.44;;;22.65;57.27
70589;BME280;58152;49.202;18.744;2022-08-19T03:49:27;96882.63;;;22.66;57.19
70589;BME280;58152;49.202;18.744;2022-08-19T03:51:54;96880.13;;;22.65;57.51
70589;BME280;58152;49.202;18.744;2022-08-19T03:54:22;96880.25;;;22.63;57.29
70589;BME280;58152;49.202;18.744;2022-08-19T03:56:49;96879.59;;;22.61;57.12
70589;BME280;58152;49.202;18.744;2022-08-19T03:59:39;96877.91;;;22.60;57.30
70589;BME280;58152;49.202;18.744;2022-08-19T04:02:09;96891.59;;;22.57;57.47
70589;BME280;58152;49.202;18.744;2022-08-19T04:04:38;96891.88;;;22.54;57.37
70589;BME280;58152;49.202;18.744;2022-08-19T04:07:04;96893.22;;;22.50;57.68
70589;BME280;58152;49.202;18.744;2022-08-19T04:09:30;96890.69;;;22.48;57.56
70589;BME280;58152;49.202;18.744;2022-08-19T04:11:57;96884.78;;;22.45;57.58
70589;BME280;58152;49.202;18.744;2022-08-19T04:14:26;96880.44;;;22.44;57.83
70589;BME280;58152;49.202;18.744;2022-08-19T04:16:53;96901.16;;;22.42;57.85
70589;BME280;58152;49.202;18.744;2022-08-19T04:19:19;96910.19;;;22.41;57.94
70589;BME280;58152;49.202;18.744;2022-08-19T04:21:46;96913.16;;;22.38;58.07
70589;BME280;58152;49.202;18.744;2022-08-19T04:24:12;96906.13;;;22.37;58.31
70589;BME280;58152;49.202;18.744;2022-08-19T04:26:38;96914.16;;;22.37;58.17
70589;BME280;58152;49.202;18.744;2022-08-19T04:29:10;96911.84;;;22.42;58.62
70589;BME280;58152;49.202;18.744;2022-08-19T04:31:35;96914.34;;;22.43;58.38
70589;BME280;58152;49.202;18.744;2022-08-19T04:34:03;96907.19;;;22.44;58.27
70589;BME280;58152;49.202;18.744;2022-08-19T04:36:32;96919.69;;;22.43;58.49
70589;BME280;58152;49.202;18.744;2022-08-19T04:39:01;96902.81;;;22.43;58.42
70589;BME280;58152;49.202;18.744;2022-08-19T04:41:27;96892.13;;;22.43;58.56
70589;BME280;58152;49.202;18.744;2022-08-19T04:44:13;96901.16;;;22.42;58.11
70589;BME280;58152;49.202;18.744;2022-08-19T04:46:38;96890.75;;;22.39;58.71
70589;BME280;58152;49.202;18.744;2022-08-19T04:49:06;96899.50;;;22.41;58.73
70589;BME280;58152;49.202;18.744;2022-08-19T04:51:33;96899.50;;;22.41;58.85
70589;BME280;58152;49.202;18.744;2022-08-19T04:54:01;96905.66;;;22.41;58.80
70589;BME280;58152;49.202;18.744;2022-08-19T04:56:27;96908.47;;;22.40;59.21
70589;BME280;58152;49.202;18.744;2022-08-19T04:58:54;96906.63;;;22.40;59.01
70589;BME280;58152;49.202;18.744;2022-08-19T05:01:26;96910.19;;;22.41;58.87
70589;BME280;58152;49.202;18.744;2022-08-19T05:03:54;96911.84;;;22.42;59.06
70589;BME280;58152;49.202;18.744;2022-08-19T05:06:21;96912.53;;;22.44;59.17
70589;BME280;58152;49.202;18.744;2022-08-19T05:08:47;96901.16;;;22.42;59.25
70589;BME280;58152;49.202;18.744;2022-08-19T05:11:25;96900.16;;;22.43;59.64
70589;BME280;58152;49.202;18.744;2022-08-19T05:13:52;96892.31;;;22.41;59.71
70589;BME280;58152;49.202;18.744;2022-08-19T05:16:19;96884.28;;;22.41;59.70
70589;BME280;58152;49.202;18.744;2022-08-19T05:18:45;96889.47;;;22.43;59.64
70589;BME280;58152;49.202;18.744;2022-08-19T05:21:30;96895.47;;;22.45;59.58
70589;BME280;58152;49.202;18.744;2022-08-19T05:24:15;96896.47;;;22.44;59.66
70589;BME280;58152;49.202;18.744;2022-08-19T05:26:43;96903.66;;;22.43;59.24
70589;BME280;58152;49.202;18.744;2022-08-19T05:29:12;96905.34;;;22.44;59.16
70589;BME280;58152;49.202;18.744;2022-08-19T05:31:38;96906.34;;;22.43;59.26
70589;BME280;58152;49.202;18.744;2022-08-19T05:34:04;96906.88;;;22.47;59.25
70589;BME280;58152;49.202;18.744;2022-08-19T05:36:35;96910.56;;;22.46;59.21
70589;BME280;58152;49.202;18.744;2022-08-19T05:39:02;96924.41;;;22.49;59.23
70589;BME280;58152;49.202;18.744;2022-08-19T05:41:29;96931.59;;;22.49;59.28
70589;BME280;58152;49.202;18.744;2022-08-19T05:43:56;96924.41;;;22.49;59.10
70589;BME280;58152;49.202;18.744;2022-08-19T05:46:22;96916.28;;;22.51;59.28
70589;BME280;58152;49.202;18.744;2022-08-19T05:48:48;96918.94;;;22.51;59.25
70589;BME280;58152;49.202;18.744;2022-08-19T05:51:15;96920.16;;;22.56;59.35
70589;BME280;58152;49.202;18.744;2022-08-19T05:53:41;96917.31;;;22.58;59.19
70589;BME280;58152;49.202;18.744;2022-08-19T05:56:10;96905.78;;;22.57;58.94
70589;BME280;58152;49.202;18.744;2022-08-19T05:58:37;96920.34;;;22.63;59.16
70589;BME280;58152;49.202;18.744;2022-08-19T06:01:09;96910.38;;;22.65;59.16
70589;BME280;58152;49.202;18.744;2022-08-19T06:03:36;96913.41;;;22.70;59.22
70589;BME280;58152;49.202;18.744;2022-08-19T06:06:03;96912.09;;;22.74;59.25
70589;BME280;58152;49.202;18.744;2022-08-19T06:08:29;96914.63;;;22.76;59.47
70589;BME280;58152;49.202;18.744;2022-08-19T06:10:55;96919.66;;;22.79;59.25
70589;BME280;58152;49.202;18.744;2022-08-19T06:13:21;96923.16;;;22.79;59.11
70589;BME280;58152;49.202;18.744;2022-08-19T06:15:48;96931.56;;;22.84;59.17
70589;BME280;58152;49.202;18.744;2022-08-19T06:18:14;96921.25;;;22.90;58.85
70589;BME280;58152;49.202;18.744;2022-08-19T06:20:41;96937.53;;;22.96;58.97
70589;BME280;58152;49.202;18.744;2022-08-19T06:23:06;96927.50;;;22.98;58.51
70589;BME280;58152;49.202;18.744;2022-08-19T06:25:32;96929.72;;;23.03;58.69
70589;BME280;58152;49.202;18.744;2022-08-19T06:27:57;96930.41;;;23.05;58.66
70589;BME280;58152;49.202;18.744;2022-08-19T06:30:23;96930.41;;;23.05;58.69
70589;BME280;58152;49.202;18.744;2022-08-19T06:32:48;96948.34;;;23.13;58.94
70589;BME280;58152;49.202;18.744;2022-08-19T06:35:14;96949.88;;;23.15;58.40
70589;BME280;58152;49.202;18.744;2022-08-19T06:37:40;96946.03;;;23.18;58.71
70589;BME280;58152;49.202;18.744;2022-08-19T06:40:06;96952.06;;;23.20;58.46
70589;BME280;58152;49.202;18.744;2022-08-19T06:42:34;96949.22;;;23.21;58.42
70589;BME280;58152;49.202;18.744;2022-08-19T06:45:00;96951.59;;;23.24;58.49
70589;BME280;58152;49.202;18.744;2022-08-19T06:47:28;96949.59;;;23.26;58.74
70589;BME280;58152;49.202;18.744;2022-08-19T06:49:55;96954.63;;;23.29;58.53
70589;BME280;58152;49.202;18.744;2022-08-19T06:52:25;96953.63;;;23.30;58.38
70589;BME280;58152;49.202;18.744;2022-08-19T06:54:50;96957.00;;;23.32;58.49
70589;BME280;58152;49.202;18.744;2022-08-19T06:57:16;96955.00;;;23.34;58.10
70589;BME280;58152;49.202;18.744;2022-08-19T06:59:41;96960.03;;;23.38;58.36
70589;BME280;58152;49.202;18.744;2022-08-19T07:02:07;96970.41;;;23.41;58.25
70589;BME280;58152;49.202;18.744;2022-08-19T07:04:38;96965.88;;;23.41;58.42
70589;BME280;58152;49.202;18.744;2022-08-19T07:07:07;96969.63;;;23.48;58.19
70589;BME280;58152;49.202;18.744;2022-08-19T07:09:36;96963.44;;;23.48;58.06
70589;BME280;58152;49.202;18.744;2022-08-19T07:12:04;96975.69;;;23.58;57.88
70589;BME280;58152;49.202;18.744;2022-08-19T07:14:32;96968.19;;;23.62;57.59
70589;BME280;58152;49.202;18.744;2022-08-19T07:16:58;96961.00;;;23.63;57.78
70589;BME280;58152;49.202;18.744;2022-08-19T07:19:25;96963.22;;;23.67;57.87
70589;BME280;58152;49.202;18.744;2022-08-19T07:21:55;96970.25;;;23.68;58.02
70589;BME280;58152;49.202;18.744;2022-08-19T07:24:23;96974.28;;;23.72;58.12
70589;BME280;58152;49.202;18.744;2022-08-19T07:26:51;96970.63;;;23.73;58.21
70589;BME280;58152;49.202;18.744;2022-08-19T07:29:18;96979.84;;;23.79;58.25
70589;BME280;58152;49.202;18.744;2022-08-19T07:31:45;96981.34;;;23.81;58.27
70589;BME280;58152;49.202;18.744;2022-08-19T07:34:11;96985.38;;;23.86;57.90
70589;BME280;58152;49.202;18.744;2022-08-19T07:36:41;96980.38;;;23.91;57.92
70589;BME280;58152;49.202;18.744;2022-08-19T07:39:15;96982.75;;;23.94;58.37
70589;BME280;58152;49.202;18.744;2022-08-19T07:41:42;96977.91;;;23.97;58.26
70589;BME280;58152;49.202;18.744;2022-08-19T07:44:08;96975.75;;;24.01;58.20
70589;BME280;58152;49.202;18.744;2022-08-19T07:46:36;96979.94;;;24.03;58.56
70589;BME280;58152;49.202;18.744;2022-08-19T07:49:03;96976.75;;;24.08;58.19
70589;BME280;58152;49.202;18.744;2022-08-19T07:51:29;96967.41;;;24.12;58.27
70589;BME280;58152;49.202;18.744;2022-08-19T07:53:55;96967.91;;;24.16;58.18
70589;BME280;58152;49.202;18.744;2022-08-19T07:56:21;96967.56;;;24.19;58.40
70589;BME280;58152;49.202;18.744;2022-08-19T07:58:49;96964.41;;;24.23;58.11
70589;BME280;58152;49.202;18.744;2022-08-19T08:01:18;96961.41;;;24.26;58.58
70589;BME280;58152;49.202;18.744;2022-08-19T08:03:44;96967.94;;;24.32;58.40
70589;BME280;58152;49.202;18.744;2022-08-19T08:06:28;96979.91;;;24.38;58.24
70589;BME280;58152;49.202;18.744;2022-08-19T08:09:14;96978.41;;;24.43;57.86
70589;BME280;58152;49.202;18.744;2022-08-19T08:11:50;96974.22;;;24.49;58.00
70589;BME280;58152;49.202;18.744;2022-08-19T08:14:22;96966.69;;;24.52;57.84
70589;BME280;58152;49.202;18.744;2022-08-19T08:16:49;96976.56;;;24.60;57.32
70589;BME280;58152;49.202;18.744;2022-08-19T08:19:17;96963.50;;;24.65;56.56
70589;BME280;58152;49.202;18.744;2022-08-19T08:21:43;96965.34;;;24.73;56.08
70589;BME280;58152;49.202;18.744;2022-08-19T08:24:10;96961.16;;;24.78;55.68
70589;BME280;58152;49.202;18.744;2022-08-19T08:26:35;96968.34;;;24.86;55.03
70589;BME280;58152;49.202;18.744;2022-08-19T08:29:01;96977.44;;;24.93;55.00
70589;BME280;58152;49.202;18.744;2022-08-19T08:31:27;96969.53;;;25.00;54.25
70589;BME280;58152;49.202;18.744;2022-08-19T08:33:53;96964.34;;;25.06;54.26
70589;BME280;58152;49.202;18.744;2022-08-19T08:36:19;96967.38;;;25.12;54.03
70589;BME280;58152;49.202;18.744;2022-08-19T08:38:45;96964.19;;;25.16;54.23
70589;BME280;58152;49.202;18.744;2022-08-19T08:41:32;96961.31;;;25.26;54.59
70589;BME280;58152;49.202;18.744;2022-08-19T08:44:00;96957.28;;;25.30;53.80
70589;BME280;58152;49.202;18.744;2022-08-19T08:46:39;96958.13;;;25.30;53.53
70589;BME280;58152;49.202;18.744;2022-08-19T08:49:42;96969.50;;;25.41;53.24
70589;BME280;58152;49.202;18.744;2022-08-19T08:52:21;96963.94;;;25.42;53.58
70589;BME280;58152;49.202;18.744;2022-08-19T08:54:50;96966.81;;;25.49;53.42
70589;BME280;58152;49.202;18.744;2022-08-19T08:57:27;96964.44;;;25.54;53.22
70589;BME280;58152;49.202;18.744;2022-08-19T08:59:54;96965.09;;;25.56;54.16
70589;BME280;58152;49.202;18.744;2022-08-19T09:02:22;96978.81;;;25.61;55.10
70589;BME280;58152;49.202;18.744;2022-08-19T09:04:48;96976.81;;;25.63;55.87
70589;BME280;58152;49.202;18.744;2022-08-19T09:10:37;96972.09;;;25.65;56.13
70589;BME280;58152;49.202;18.744;2022-08-19T09:13:16;96972.09;;;25.65;55.81
70589;BME280;58152;49.202;18.744;2022-08-19T09:15:54;96967.09;;;25.62;56.22
70589;BME280;58152;49.202;18.744;2022-08-19T09:18:22;96966.22;;;25.70;55.94
70589;BME280;58152;49.202;18.744;2022-08-19T09:20:48;96950.09;;;25.70;55.93
70589;BME280;58152;49.202;18.744;2022-08-19T09:23:14;96960.00;;;25.77;56.35
70589;BME280;58152;49.202;18.744;2022-08-19T09:25:39;96959.81;;;25.79;56.63
70589;BME280;58152;49.202;18.744;2022-08-19T09:28:05;96950.94;;;25.78;56.30
70589;BME280;58152;49.202;18.744;2022-08-19T09:30:34;96942.84;;;25.87;55.58
70589;BME280;58152;49.202;18.744;2022-08-19T09:33:06;96944.66;;;25.94;55.46
70589;BME280;58152;49.202;18.744;2022-08-19T09:35:32;96952.84;;;26.01;54.91
70589;BME280;58152;49.202;18.744;2022-08-19T09:38:00;96943.13;;;26.00;55.28
70589;BME280;58152;49.202;18.744;2022-08-19T09:40:27;96937.03;;;26.06;55.26
70589;BME280;58152;49.202;18.744;2022-08-19T09:42:54;96933.81;;;26.10;55.50
70589;BME280;58152;49.202;18.744;2022-08-19T09:45:21;96916.00;;;26.09;56.08
70589;BME280;58152;49.202;18.744;2022-08-19T09:47:48;96927.91;;;26.15;55.96
70589;BME280;58152;49.202;18.744;2022-08-19T09:50:15;96918.19;;;26.14;55.92
70589;BME280;58152;49.202;18.744;2022-08-19T09:52:43;96921.34;;;26.18;56.00
70589;BME280;58152;49.202;18.744;2022-08-19T09:55:10;96925.72;;;26.19;55.48
70589;BME280;58152;49.202;18.744;2022-08-19T09:57:36;96929.53;;;26.24;54.93
70589;BME280;58152;49.202;18.744;2022-08-19T10:00:04;96910.72;;;26.24;55.26
70589;BME280;58152;49.202;18.744;2022-08-19T10:02:31;96905.81;;;26.28;55.28
70589;BME280;58152;49.202;18.744;2022-08-19T10:04:57;96921.16;;;26.42;55.03
70589;BME280;58152;49.202;18.744;2022-08-19T10:07:41;96924.69;;;26.51;54.96
70589;BME280;58152;49.202;18.744;2022-08-19T10:10:07;96921.59;;;26.62;54.88
70589;BME280;58152;49.202;18.744;2022-08-19T10:12:35;96918.38;;;26.81;54.77
70589;BME280;58152;49.202;18.744;2022-08-19T10:15:03;96919.25;;;26.97;55.00
70589;BME280;58152;49.202;18.744;2022-08-19T10:17:29;96912.91;;;27.13;54.75
70589;BME280;58152;49.202;18.744;2022-08-19T10:19:55;96916.09;;;27.31;54.10
70589;BME280;58152;49.202;18.744;2022-08-19T10:22:21;96907.16;;;27.45;53.91
70589;BME280;58152;49.202;18.744;2022-08-19T10:24:58;96917.44;;;27.71;52.85
70589;BME280;58152;49.202;18.744;2022-08-19T10:27:33;96907.63;;;27.78;52.42
70589;BME280;58152;49.202;18.744;2022-08-19T10:29:58;96911.53;;;27.91;52.48
70589;BME280;58152;49.202;18.744;2022-08-19T10:32:24;96912.88;;;28.01;52.18
70589;BME280;58152;49.202;18.744;2022-08-19T10:34:53;96917.97;;;28.11;51.66
70589;BME280;58152;49.202;18.744;2022-08-19T10:37:19;96912.03;;;28.01;52.14
70589;BME280;58152;49.202;18.744;2022-08-19T10:39:47;96916.19;;;28.18;52.65
70589;BME280;58152;49.202;18.744;2022-08-19T10:42:15;96903.06;;;28.51;51.55
70589;BME280;58152;49.202;18.744;2022-08-19T10:44:42;96895.94;;;28.65;50.77
70589;BME280;58152;49.202;18.744;2022-08-19T10:47:08;96891.53;;;28.85;50.37
70589;BME280;58152;49.202;18.744;2022-08-19T10:49:34;96903.53;;;29.04;49.56
70589;BME280;58152;49.202;18.744;2022-08-19T10:52:22;96894.94;;;29.22;49.77
70589;BME280;58152;49.202;18.744;2022-08-19T10:55:06;96902.34;;;29.42;48.17
70589;BME280;58152;49.202;18.744;2022-08-19T10:57:50;96890.19;;;29.59;48.00
70589;BME280;58152;49.202;18.744;2022-08-19T11:00:19;96884.84;;;29.72;47.79
70589;BME280;58152;49.202;18.744;2022-08-19T11:02:45;96878.88;;;29.83;47.29
70589;BME280;58152;49.202;18.744;2022-08-19T11:05:11;96888.28;;;30.01;47.32
70589;BME280;58152;49.202;18.744;2022-08-19T11:07:38;96887.34;;;30.15;47.03
70589;BME280;58152;49.202;18.744;2022-08-19T11:10:05;96883.41;;;30.31;47.25
70589;BME280;58152;49.202;18.744;2022-08-19T11:12:31;96877.38;;;30.42;46.61
70589;BME280;58152;49.202;18.744;2022-08-19T11:14:58;96875.34;;;30.57;46.38
70589;BME280;58152;49.202;18.744;2022-08-19T11:17:23;96874.75;;;30.75;45.77
70589;BME280;58152;49.202;18.744;2022-08-19T11:19:49;96867.25;;;30.91;45.53
70589;BME280;58152;49.202;18.744;2022-08-19T11:22:15;96861.81;;;31.04;45.32
70589;BME280;58152;49.202;18.744;2022-08-19T11:24:42;96860.13;;;31.16;44.80
70589;BME280;58152;49.202;18.744;2022-08-19T11:27:09;96858.44;;;31.28;44.13
70589;BME280;58152;49.202;18.744;2022-08-19T11:29:38;96868.00;;;31.44;44.28
70589;BME280;58152;49.202;18.744;2022-08-19T11:32:07;96852.75;;;31.56;43.91
70589;BME280;58152;49.202;18.744;2022-08-19T11:34:34;96862.72;;;31.69;42.90
70589;BME280;58152;49.202;18.744;2022-08-19T11:37:01;96859.56;;;31.85;42.29
70589;BME280;58152;49.202;18.744;2022-08-19T11:39:30;96860.72;;;32.03;42.22
70589;BME280;58152;49.202;18.744;2022-08-19T11:41:58;96857.72;;;32.18;42.14
70589;BME280;58152;49.202;18.744;2022-08-19T11:44:24;96845.94;;;32.30;41.81
70589;BME280;58152;49.202;18.744;2022-08-19T11:46:50;96838.56;;;32.44;40.76
70589;BME280;58152;49.202;18.744;2022-08-19T11:49:18;96835.53;;;32.59;40.61
70589;BME280;58152;49.202;18.744;2022-08-19T11:51:45;96838.84;;;32.61;40.33
70589;BME280;58152;49.202;18.744;2022-08-19T11:54:15;96835.53;;;32.27;40.88
70589;BME280;58152;49.202;18.744;2022-08-19T11:56:41;96846.88;;;32.11;41.15
70589;BME280;58152;49.202;18.744;2022-08-19T11:59:07;96837.88;;;32.17;41.07
70589;BME280;58152;49.202;18.744;2022-08-19T12:01:33;96836.56;;;31.95;40.91
70589;BME280;58152;49.202;18.744;2022-08-19T12:03:59;96843.91;;;31.81;40.94
70589;BME280;58152;49.202;18.744;2022-08-19T12:06:30;96844.13;;;31.73;40.72
70589;BME280;58152;49.202;18.744;2022-08-19T12:08:58;96842.09;;;31.61;40.50
70589;BME280;58152;49.202;18.744;2022-08-19T12:11:25;96841.28;;;31.54;40.57
70589;BME280;58152;49.202;18.744;2022-08-19T12:13:51;96849.59;;;31.66;41.04
70589;BME280;58152;49.202;18.744;2022-08-19T12:16:21;96853.47;;;31.90;40.92
70589;BME280;58152;49.202;18.744;2022-08-19T12:18:48;96848.59;;;32.05;41.06
70589;BME280;58152;49.202;18.744;2022-08-19T12:21:21;96850.72;;;31.97;40.67
70589;BME280;58152;49.202;18.744;2022-08-19T12:23:48;96837.41;;;31.88;40.88
70589;BME280;58152;49.202;18.744;2022-08-19T12:26:15;96830.88;;;32.03;40.77
70589;BME280;58152;49.202;18.744;2022-08-19T12:28:40;96834.94;;;32.19;40.94
70589;BME280;58152;49.202;18.744;2022-08-19T12:31:06;96838.19;;;32.41;40.30
70589;BME280;58152;49.202;18.744;2022-08-19T12:33:32;96828.69;;;32.75;39.58
70589;BME280;58152;49.202;18.744;2022-08-19T12:36:04;96834.34;;;33.23;39.45
70589;BME280;58152;49.202;18.744;2022-08-19T12:38:30;96826.97;;;33.49;38.69
70589;BME280;58152;49.202;18.744;2022-08-19T12:40:58;96835.56;;;33.82;37.85
70589;BME280;58152;49.202;18.744;2022-08-19T12:43:23;96832.59;;;34.02;37.20
70589;BME280;58152;49.202;18.744;2022-08-19T12:45:49;96823.53;;;34.20;35.47
70589;BME280;58152;49.202;18.744;2022-08-19T12:48:15;96821.22;;;34.35;35.27
70589;BME280;58152;49.202;18.744;2022-08-19T12:50:42;96824.00;;;34.47;33.84
70589;BME280;58152;49.202;18.744;2022-08-19T12:53:08;96824.72;;;34.54;33.99
70589;BME280;58152;49.202;18.744;2022-08-19T12:55:33;96814.31;;;34.63;32.88
70589;BME280;58152;49.202;18.744;2022-08-19T12:57:59;96812.19;;;34.77;33.03